Clifford Maersk — OYRO2 — position and weather

sailwx.info

Track history (hours):
 
Tides and Currents Weather Stations Pressure Air Temp Water Temp Dewpoint Dewpoint Depression Visibility Wind Speed Wind Dir Waves Ship Positions

Clifford Maersk

Last reported at 2014-Dec-11 07:32 UTC. Time now 2014-Dec-20 12:58 UTC.
Position N 29°53' E 122°43'.
Warning: this ship's position is 9 days out of date.

Type: Ship (hazmat cat A). MMSI: 219840000.

Date/timePositionNaut miles runAvg speedWind from/ knotsBaromVisibWave heightAir tempDewpointWater temp
2014-Dec-11 07:32N 29°53' E 122°43'1616.3
2014-Dec-11 06:33N 29°43' E 122°28'1312.6
2014-Dec-11 05:33N 29°48' E 122°15'1110.7
2014-Dec-11 04:33N 29°47' E 122°02'2 1.6
2014-Dec-11 03:19N 29°46' E 122°00'0 0.0
2014-Dec-11 02:07N 29°46' E 122°00'0 0.0
2014-Dec-11 01:31N 29°46' E 122°00'0 0.0
2014-Dec-11 00:19N 29°46' E 122°00'0 0.0
2014-Dec-10 23:25N 29°46' E 122°00'0 0.0
2014-Dec-10 20:13N 29°46' E 122°00'0 0.1
2014-Dec-10 19:13N 29°46' E 122°00'0 0.0
2014-Dec-10 16:20N 29°46' E 122°00'3 3.2
2014-Dec-10 15:33N 29°47' E 122°03'10 9.5
2014-Dec-10 14:33N 29°49' E 122°14'10 9.6
2014-Dec-10 13:33N 29°44' E 122°23'1111.2
2014-Dec-10 12:33N 29°49' E 122°35'35 8.0
2014-Dec-10 08:12N 30°21' E 122°51'911.8
2014-Dec-10 07:28N 30°26' E 122°42'1111.7
2014-Dec-10 06:33N 30°30' E 122°31'1110.7
2014-Dec-10 05:34N 30°33' E 122°19'1312.9
2014-Dec-10 04:33N 30°36' E 122°05'1 1.3
2014-Dec-10 03:33N 30°37' E 122°04'0 0.1
2014-Dec-10 02:33N 30°37' E 122°04'0 0.1
2014-Dec-10 01:30N 30°37' E 122°04'0 0.1
2014-Dec-10 00:33N 30°37' E 122°04'0 0.1
2014-Dec-09 23:33N 30°37' E 122°04'0 0.0
2014-Dec-09 22:33N 30°37' E 122°04'0 0.2
2014-Dec-09 21:33N 30°37' E 122°04'0 0.0
2014-Dec-09 20:33N 30°37' E 122°04'0 0.3
2014-Dec-09 19:33N 30°37' E 122°04'0 0.2
2014-Dec-09 18:33N 30°37' E 122°04'0 0.1
2014-Dec-09 17:33N 30°37' E 122°04'0 0.1
2014-Dec-09 16:33N 30°37' E 122°04'0 0.2
2014-Dec-09 15:33N 30°37' E 122°04'0 0.0
2014-Dec-09 14:30N 30°37' E 122°04'0 0.1
2014-Dec-09 13:33N 30°37' E 122°04'1 1.3
2014-Dec-09 12:33N 30°36' E 122°05'9 9.2
2014-Dec-09 11:33N 30°34' E 122°15'25 6.2
2014-Dec-09 07:31N 30°27' E 122°43'341 9.2
2014-Dec-07 18:25N 35°54' E 120°47'1012.1
2014-Dec-07 17:33N 35°58' E 120°36'1212.0
2014-Dec-07 16:33N 36°01' E 120°21'7 7.2
2014-Dec-07 15:33N 36°00' E 120°12'0 0.0
2014-Dec-07 14:33N 36°00' E 120°12'0 0.0
2014-Dec-07 12:11N 36°00' E 120°12'0 0.0
2014-Dec-07 11:25N 36°00' E 120°12'0 0.0
2014-Dec-07 09:25N 36°00' E 120°12'0 0.0
2014-Dec-07 08:33N 36°00' E 120°12'0 0.0
2014-Dec-07 07:33N 36°00' E 120°12'0 0.0
2014-Dec-07 06:33N 36°00' E 120°12'0 0.0
2014-Dec-07 05:33N 36°00' E 120°12'0 0.0
2014-Dec-07 04:33N 36°00' E 120°12'0 0.0
2014-Dec-07 03:33N 36°00' E 120°12'3 2.7
2014-Dec-07 02:33N 36°02' E 120°15'1211.2
2014-Dec-07 01:30N 36°00' E 120°30'7 7.5
2014-Dec-07 00:33N 35°59' E 120°38'  
2014-Dec-02 13:31N 29°57' E 122°50'1111.6
2014-Dec-02 12:33N 29°51' E 122°39'1211.5
2014-Dec-02 11:33N 29°42' E 122°30'1110.8
2014-Dec-02 10:33N 29°45' E 122°18'10 9.7
2014-Dec-02 09:34N 29°52' E 122°11'1212.2
2014-Dec-02 08:33N 29°58' E 121°58'7 6.2
2014-Dec-02 07:23N 29°57' E 121°50'0 0.0
2014-Dec-02 06:20N 29°57' E 121°50'0 0.0
2014-Dec-02 05:26N 29°57' E 121°50'0 0.0
2014-Dec-02 04:26N 29°57' E 121°50'0 0.0
2014-Dec-02 03:26N 29°57' E 121°50'0 0.0
2014-Dec-02 02:29N 29°57' E 121°50'0 0.0
2014-Dec-02 01:29N 29°57' E 121°50'0 0.0
2014-Dec-02 00:26N 29°57' E 121°50'0 0.0
2014-Dec-01 23:32N 29°57' E 121°50'0 0.0
2014-Dec-01 22:32N 29°57' E 121°50'0 0.0
2014-Dec-01 21:26N 29°57' E 121°50'0 0.0
2014-Dec-01 20:32N 29°57' E 121°50'0 0.0
2014-Dec-01 18:26N 29°57' E 121°50'0 0.0
2014-Dec-01 15:08N 29°57' E 121°50'2 3.1
2014-Dec-01 14:33N 29°57' E 121°52'1212.1
2014-Dec-01 13:33N 29°55' E 122°06'1212.1
2014-Dec-01 12:33N 29°47' E 122°16'6 1.9
2014-Dec-01 09:14N 29°43' E 122°21'  
Track history (hours):
 
Tides and Currents Weather Stations Pressure Air Temp Water Temp Dewpoint Dewpoint Depression Visibility Wind Speed Wind Dir Waves Ship Positions

Clifford Maersk

Last reported at 2014-Dec-11 07:32 UTC. Time now 2014-Dec-20 12:58 UTC.
Position N 29°53' E 122°43'.
Warning: this ship's position is 9 days out of date.

Type: Ship (hazmat cat A). MMSI: 219840000.

Date/timePositionNaut miles runAvg speedWind from/ knotsBaromVisibWave heightAir tempDewpointWater temp
2014-Dec-11 07:32N 29°53' E 122°43'1616.3
2014-Dec-11 06:33N 29°43' E 122°28'1312.6
2014-Dec-11 05:33N 29°48' E 122°15'1110.7
2014-Dec-11 04:33N 29°47' E 122°02'2 1.6
2014-Dec-11 03:19N 29°46' E 122°00'0 0.0
2014-Dec-11 02:07N 29°46' E 122°00'0 0.0
2014-Dec-11 01:31N 29°46' E 122°00'0 0.0
2014-Dec-11 00:19N 29°46' E 122°00'0 0.0
2014-Dec-10 23:25N 29°46' E 122°00'0 0.0
2014-Dec-10 20:13N 29°46' E 122°00'0 0.1
2014-Dec-10 19:13N 29°46' E 122°00'0 0.0
2014-Dec-10 16:20N 29°46' E 122°00'3 3.2
2014-Dec-10 15:33N 29°47' E 122°03'10 9.5
2014-Dec-10 14:33N 29°49' E 122°14'10 9.6
2014-Dec-10 13:33N 29°44' E 122°23'1111.2
2014-Dec-10 12:33N 29°49' E 122°35'35 8.0
2014-Dec-10 08:12N 30°21' E 122°51'911.8
2014-Dec-10 07:28N 30°26' E 122°42'1111.7
2014-Dec-10 06:33N 30°30' E 122°31'1110.7
2014-Dec-10 05:34N 30°33' E 122°19'1312.9
2014-Dec-10 04:33N 30°36' E 122°05'1 1.3
2014-Dec-10 03:33N 30°37' E 122°04'0 0.1
2014-Dec-10 02:33N 30°37' E 122°04'0 0.1
2014-Dec-10 01:30N 30°37' E 122°04'0 0.1
2014-Dec-10 00:33N 30°37' E 122°04'0 0.1
2014-Dec-09 23:33N 30°37' E 122°04'0 0.0
2014-Dec-09 22:33N 30°37' E 122°04'0 0.2
2014-Dec-09 21:33N 30°37' E 122°04'0 0.0
2014-Dec-09 20:33N 30°37' E 122°04'0 0.3
2014-Dec-09 19:33N 30°37' E 122°04'0 0.2
2014-Dec-09 18:33N 30°37' E 122°04'0 0.1
2014-Dec-09 17:33N 30°37' E 122°04'0 0.1
2014-Dec-09 16:33N 30°37' E 122°04'0 0.2
2014-Dec-09 15:33N 30°37' E 122°04'0 0.0
2014-Dec-09 14:30N 30°37' E 122°04'0 0.1
2014-Dec-09 13:33N 30°37' E 122°04'1 1.3
2014-Dec-09 12:33N 30°36' E 122°05'9 9.2
2014-Dec-09 11:33N 30°34' E 122°15'25 6.2
2014-Dec-09 07:31N 30°27' E 122°43'341 9.2
2014-Dec-07 18:25N 35°54' E 120°47'1012.1
2014-Dec-07 17:33N 35°58' E 120°36'1212.0
2014-Dec-07 16:33N 36°01' E 120°21'7 7.2
2014-Dec-07 15:33N 36°00' E 120°12'0 0.0
2014-Dec-07 14:33N 36°00' E 120°12'0 0.0
2014-Dec-07 12:11N 36°00' E 120°12'0 0.0
2014-Dec-07 11:25N 36°00' E 120°12'0 0.0
2014-Dec-07 09:25N 36°00' E 120°12'0 0.0
2014-Dec-07 08:33N 36°00' E 120°12'0 0.0
2014-Dec-07 07:33N 36°00' E 120°12'0 0.0
2014-Dec-07 06:33N 36°00' E 120°12'0 0.0
2014-Dec-07 05:33N 36°00' E 120°12'0 0.0
2014-Dec-07 04:33N 36°00' E 120°12'0 0.0
2014-Dec-07 03:33N 36°00' E 120°12'3 2.7
2014-Dec-07 02:33N 36°02' E 120°15'1211.2
2014-Dec-07 01:30N 36°00' E 120°30'7 7.5
2014-Dec-07 00:33N 35°59' E 120°38'  
2014-Dec-02 13:31N 29°57' E 122°50'1111.6
2014-Dec-02 12:33N 29°51' E 122°39'1211.5
2014-Dec-02 11:33N 29°42' E 122°30'1110.8
2014-Dec-02 10:33N 29°45' E 122°18'10 9.7
2014-Dec-02 09:34N 29°52' E 122°11'1212.2
2014-Dec-02 08:33N 29°58' E 121°58'7 6.2
2014-Dec-02 07:23N 29°57' E 121°50'0 0.0
2014-Dec-02 06:20N 29°57' E 121°50'0 0.0
2014-Dec-02 05:26N 29°57' E 121°50'0 0.0
2014-Dec-02 04:26N 29°57' E 121°50'0 0.0
2014-Dec-02 03:26N 29°57' E 121°50'0 0.0
2014-Dec-02 02:29N 29°57' E 121°50'0 0.0
2014-Dec-02 01:29N 29°57' E 121°50'0 0.0
2014-Dec-02 00:26N 29°57' E 121°50'0 0.0
2014-Dec-01 23:32N 29°57' E 121°50'0 0.0
2014-Dec-01 22:32N 29°57' E 121°50'0 0.0
2014-Dec-01 21:26N 29°57' E 121°50'0 0.0
2014-Dec-01 20:32N 29°57' E 121°50'0 0.0
2014-Dec-01 18:26N 29°57' E 121°50'0 0.0
2014-Dec-01 15:08N 29°57' E 121°50'2 3.1
2014-Dec-01 14:33N 29°57' E 121°52'1212.1
2014-Dec-01 13:33N 29°55' E 122°06'1212.1
2014-Dec-01 12:33N 29°47' E 122°16'6 1.9
2014-Dec-01 09:14N 29°43' E 122°21'  

Dump ship's entire track history